Time,TemperatureF,DewpointF,PressureIn,WindDirection,WindDirectionDegrees,WindSpeedMPH,WindSpeedGustMPH,Humidity,HourlyPrecipIn,Conditions,Clouds,dailyrainin,SoftwareType,DateUTC
2013-11-08 00:04:00,47.2,35.2,30.04,North,0,0.0,0.0,63,0.00,,,0.00,WUHU216HW,2013-11-08 08:04:00,
2013-11-08 00:09:00,47.0,35.0,30.04,North,0,0.0,0.0,63,0.00,,,0.00,WUHU216HW,2013-11-08 08:09:00,
2013-11-08 00:14:00,46.6,34.7,30.04,North,0,0.0,0.0,63,0.00,,,0.00,WUHU216HW,2013-11-08 08:14:00,
2013-11-08 00:19:00,46.4,34.9,30.04,North,0,0.0,0.0,64,0.00,,,0.00,WUHU216HW,2013-11-08 08:19:00,
2013-11-08 00:24:00,46.4,34.9,30.04,North,0,0.0,0.0,64,0.00,,,0.00,WUHU216HW,2013-11-08 08:24:00,
2013-11-08 00:29:00,46.4,34.9,30.03,North,0,0.0,0.0,64,0.00,,,0.00,WUHU216HW,2013-11-08 08:29:00,
2013-11-08 00:34:00,46.3,35.1,30.03,North,0,0.0,0.0,65,0.00,,,0.00,WUHU216HW,2013-11-08 08:34:00,
2013-11-08 00:39:00,46.1,34.9,30.03,ENE,68,0.3,0.4,65,0.00,,,0.00,WUHU216HW,2013-11-08 08:39:00,
2013-11-08 00:44:00,45.9,34.7,30.03,North,0,0.0,0.0,65,0.00,,,0.00,WUHU216HW,2013-11-08 08:44:00,
2013-11-08 00:49:00,45.7,35.0,30.02,North,0,0.0,0.0,66,0.00,,,0.00,WUHU216HW,2013-11-08 08:49:00,
2013-11-08 00:54:00,45.5,34.8,30.03,North,0,0.0,0.0,66,0.00,,,0.00,WUHU216HW,2013-11-08 08:54:00,
2013-11-08 00:59:00,45.4,34.7,30.02,North,0,0.0,0.0,66,0.00,,,0.00,WUHU216HW,2013-11-08 08:59:00,
2013-11-08 01:04:00,45.2,34.5,30.02,North,0,0.0,0.0,66,0.00,,,0.00,WUHU216HW,2013-11-08 09:04:00,
2013-11-08 01:09:00,45.0,34.3,30.02,North,0,0.0,0.0,66,0.00,,,0.00,WUHU216HW,2013-11-08 09:09:00,
2013-11-08 01:14:00,45.0,34.3,30.02,North,0,0.0,0.0,66,0.00,,,0.00,WUHU216HW,2013-11-08 09:14:00,
2013-11-08 01:19:00,44.8,34.5,30.02,North,0,0.0,0.0,67,0.00,,,0.00,WUHU216HW,2013-11-08 09:19:00,
2013-11-08 01:24:00,44.6,34.3,30.03,North,0,0.0,0.0,67,0.00,,,0.00,WUHU216HW,2013-11-08 09:24:00,
2013-11-08 01:29:00,44.1,34.2,30.03,NE,45,0.3,0.4,68,0.00,,,0.00,WUHU216HW,2013-11-08 09:29:00,
2013-11-08 01:34:00,43.7,33.8,30.02,North,0,0.0,0.0,68,0.00,,,0.00,WUHU216HW,2013-11-08 09:34:00,
2013-11-08 01:39:00,43.6,34.1,30.03,North,0,0.0,0.0,69,0.00,,,0.00,WUHU216HW,2013-11-08 09:39:00,
2013-11-08 01:44:00,43.2,34.2,30.03,North,0,0.0,0.0,70,0.00,,,0.00,WUHU216HW,2013-11-08 09:44:00,
2013-11-08 01:49:00,43.0,33.6,30.03,North,0,0.0,0.0,69,0.00,,,0.00,WUHU216HW,2013-11-08 09:49:00,
2013-11-08 01:54:00,42.7,34.0,30.03,North,0,0.0,0.0,71,0.00,,,0.00,WUHU216HW,2013-11-08 09:54:00,
2013-11-08 01:59:00,42.7,34.0,30.03,North,0,0.0,0.0,71,0.00,,,0.00,WUHU216HW,2013-11-08 09:59:00,
2013-11-08 02:04:00,42.7,34.0,30.03,North,0,0.0,0.0,71,0.00,,,0.00,WUHU216HW,2013-11-08 10:04:00,
2013-11-08 02:09:00,42.8,34.2,30.03,North,0,0.0,0.0,71,0.00,,,0.00,WUHU216HW,2013-11-08 10:09:00,
2013-11-08 02:14:00,43.0,34.0,30.02,North,0,0.0,0.0,70,0.00,,,0.00,WUHU216HW,2013-11-08 10:14:00,
2013-11-08 02:19:00,43.2,34.5,30.03,North,0,0.0,0.0,71,0.00,,,0.00,WUHU216HW,2013-11-08 10:19:00,
2013-11-08 02:24:00,43.2,34.5,30.02,North,0,0.0,0.0,71,0.00,,,0.00,WUHU216HW,2013-11-08 10:24:00,
2013-11-08 02:29:00,43.0,34.0,30.02,North,0,0.0,0.0,70,0.00,,,0.00,WUHU216HW,2013-11-08 10:29:00,
2013-11-08 02:34:00,42.8,33.8,30.02,SSE,166,1.4,2.0,70,0.00,,,0.00,WUHU216HW,2013-11-08 10:34:00,
2013-11-08 02:39:00,42.8,34.2,30.02,SSW,212,0.5,0.9,71,0.00,,,0.00,WUHU216HW,2013-11-08 10:39:00,
2013-11-08 02:44:00,42.8,34.2,30.02,North,0,0.0,0.0,71,0.00,,,0.00,WUHU216HW,2013-11-08 10:44:00,
2013-11-08 02:49:00,42.8,34.2,30.02,North,0,0.0,0.0,71,0.00,,,0.00,WUHU216HW,2013-11-08 10:49:00,
2013-11-08 02:55:00,42.8,34.2,30.02,North,0,0.0,0.0,71,0.00,,,0.00,WUHU216HW,2013-11-08 10:55:00,
2013-11-08 03:00:00,42.8,33.8,30.02,East,79,0.6,1.1,70,0.00,,,0.00,WUHU216HW,2013-11-08 11:00:00,
2013-11-08 03:05:00,42.8,34.2,30.02,North,0,0.0,0.0,71,0.00,,,0.00,WUHU216HW,2013-11-08 11:05:00,
2013-11-08 03:10:00,42.7,34.0,30.02,North,0,0.0,0.0,71,0.00,,,0.00,WUHU216HW,2013-11-08 11:10:00,
2013-11-08 03:15:00,42.5,33.5,30.02,North,0,0.0,0.0,70,0.00,,,0.00,WUHU216HW,2013-11-08 11:15:00,
2013-11-08 03:20:00,42.3,33.7,30.03,North,0,0.0,0.0,71,0.00,,,0.00,WUHU216HW,2013-11-08 11:20:00,
2013-11-08 03:25:00,42.1,33.1,30.02,North,0,0.0,0.0,70,0.00,,,0.00,WUHU216HW,2013-11-08 11:25:00,
2013-11-08 03:30:00,41.9,32.9,30.03,North,0,0.0,0.0,70,0.00,,,0.00,WUHU216HW,2013-11-08 11:30:00,
2013-11-08 03:35:00,41.8,33.1,30.03,North,0,0.0,0.0,71,0.00,,,0.00,WUHU216HW,2013-11-08 11:35:00,
2013-11-08 03:40:00,41.6,33.0,30.03,North,0,0.0,0.0,71,0.00,,,0.00,WUHU216HW,2013-11-08 11:40:00,
2013-11-08 03:45:00,41.4,32.8,30.03,North,0,0.0,0.0,71,0.00,,,0.00,WUHU216HW,2013-11-08 11:45:00,
2013-11-08 03:50:00,41.4,32.8,30.03,North,0,0.0,0.0,71,0.00,,,0.00,WUHU216HW,2013-11-08 11:50:00,
2013-11-08 03:55:00,41.2,32.6,30.03,North,0,0.0,0.0,71,0.00,,,0.00,WUHU216HW,2013-11-08 11:55:00,
2013-11-08 04:00:00,41.0,32.4,30.03,North,0,0.0,0.0,71,0.00,,,0.00,WUHU216HW,2013-11-08 12:00:00,
2013-11-08 04:05:00,41.0,32.4,30.03,North,0,0.0,0.0,71,0.00,,,0.00,WUHU216HW,2013-11-08 12:05:00,
2013-11-08 04:10:00,40.9,32.2,30.03,North,0,0.0,0.0,71,0.00,,,0.00,WUHU216HW,2013-11-08 12:10:00,
2013-11-08 04:15:00,40.7,32.1,30.03,North,0,0.0,0.0,71,0.00,,,0.00,WUHU216HW,2013-11-08 12:15:00,
2013-11-08 04:20:00,40.7,32.1,30.03,North,0,0.0,0.0,71,0.00,,,0.00,WUHU216HW,2013-11-08 12:20:00,
2013-11-08 04:25:00,40.7,32.1,30.03,North,0,0.0,0.0,71,0.00,,,0.00,WUHU216HW,2013-11-08 12:25:00,
2013-11-08 04:30:00,40.5,32.1,30.03,ESE,113,0.4,0.4,72,0.00,,,0.00,WUHU216HW,2013-11-08 12:30:00,
2013-11-08 04:35:00,40.5,32.5,30.03,North,0,0.0,0.0,73,0.00,,,0.00,WUHU216HW,2013-11-08 12:35:00,
2013-11-08 04:40:00,40.5,32.1,30.03,North,0,0.0,0.0,72,0.00,,,0.00,WUHU216HW,2013-11-08 12:40:00,
2013-11-08 04:45:00,40.3,32.0,30.02,North,0,0.0,0.0,72,0.00,,,0.00,WUHU216HW,2013-11-08 12:45:00,
2013-11-08 04:50:00,40.3,32.0,30.03,North,0,0.0,0.0,72,0.00,,,0.00,WUHU216HW,2013-11-08 12:50:00,
2013-11-08 04:55:00,40.7,32.7,30.02,North,0,0.0,0.0,73,0.00,,,0.00,WUHU216HW,2013-11-08 12:55:00,
2013-11-08 05:00:00,40.7,32.7,30.02,North,0,0.0,0.0,73,0.00,,,0.00,WUHU216HW,2013-11-08 13:00:00,
2013-11-08 05:05:00,40.7,32.7,30.02,North,0,0.0,0.0,73,0.00,,,0.00,WUHU216HW,2013-11-08 13:05:00,
2013-11-08 05:10:00,40.9,32.5,30.03,North,0,0.0,0.0,72,0.00,,,0.00,WUHU216HW,2013-11-08 13:10:00,
2013-11-08 05:15:00,40.7,32.3,30.03,North,0,0.0,0.0,72,0.00,,,0.00,WUHU216HW,2013-11-08 13:15:00,
2013-11-08 05:20:00,40.7,32.3,30.02,North,0,0.0,0.0,72,0.00,,,0.00,WUHU216HW,2013-11-08 13:20:00,
2013-11-08 05:25:00,40.5,32.1,30.02,North,0,0.0,0.0,72,0.00,,,0.00,WUHU216HW,2013-11-08 13:25:00,
2013-11-08 05:30:00,40.5,32.5,30.02,North,0,0.0,0.0,73,0.00,,,0.00,WUHU216HW,2013-11-08 13:30:00,
2013-11-08 05:35:00,40.7,32.7,30.02,North,0,0.0,0.0,73,0.00,,,0.00,WUHU216HW,2013-11-08 13:35:00,
2013-11-08 05:40:00,40.7,33.0,30.02,North,0,0.0,0.0,74,0.00,,,0.00,WUHU216HW,2013-11-08 13:40:00,
2013-11-08 05:45:00,40.9,33.1,30.02,SE,135,0.4,0.4,74,0.00,,,0.00,WUHU216HW,2013-11-08 13:45:00,
2013-11-08 05:50:00,41.0,33.3,30.02,ESE,113,0.2,0.2,74,0.00,,,0.00,WUHU216HW,2013-11-08 13:50:00,
2013-11-08 05:55:00,41.2,33.2,30.02,North,0,0.0,0.0,73,0.00,,,0.00,WUHU216HW,2013-11-08 13:55:00,
2013-11-08 06:00:00,41.4,33.4,30.02,North,0,0.0,0.0,73,0.00,,,0.00,WUHU216HW,2013-11-08 14:00:00,
2013-11-08 06:05:00,41.4,33.4,30.02,North,0,0.0,0.0,73,0.00,,,0.00,WUHU216HW,2013-11-08 14:05:00,
2013-11-08 06:10:00,41.8,33.4,30.02,North,0,0.0,0.0,72,0.00,,,0.00,WUHU216HW,2013-11-08 14:10:00,
2013-11-08 06:15:00,41.9,33.3,30.02,North,0,0.0,0.0,71,0.00,,,0.00,WUHU216HW,2013-11-08 14:15:00,
2013-11-08 06:20:00,41.8,33.1,30.02,North,0,0.0,0.0,71,0.00,,,0.00,WUHU216HW,2013-11-08 14:20:00,
2013-11-08 06:25:00,41.8,33.1,30.02,North,0,0.0,0.0,71,0.00,,,0.00,WUHU216HW,2013-11-08 14:25:00,
2013-11-08 06:30:00,41.6,33.0,30.02,North,0,0.0,0.0,71,0.00,,,0.00,WUHU216HW,2013-11-08 14:30:00,
2013-11-08 06:35:00,41.6,33.0,30.02,North,0,0.0,0.0,71,0.00,,,0.00,WUHU216HW,2013-11-08 14:35:00,
2013-11-08 06:40:00,41.4,32.8,30.02,North,0,0.0,0.0,71,0.00,,,0.00,WUHU216HW,2013-11-08 14:40:00,
2013-11-08 06:45:00,41.2,32.6,30.02,North,0,0.0,0.0,71,0.00,,,0.00,WUHU216HW,2013-11-08 14:45:00,
2013-11-08 06:50:00,41.0,32.4,30.02,North,0,0.0,0.0,71,0.00,,,0.00,WUHU216HW,2013-11-08 14:50:00,
2013-11-08 06:55:00,41.0,32.4,30.02,North,0,0.0,0.0,71,0.00,,,0.00,WUHU216HW,2013-11-08 14:55:00,
2013-11-08 07:00:00,41.0,32.4,30.02,North,0,0.0,0.0,71,0.00,,,0.00,WUHU216HW,2013-11-08 15:00:00,
2013-11-08 07:05:00,41.2,32.9,30.02,North,0,0.0,0.0,72,0.00,,,0.00,WUHU216HW,2013-11-08 15:05:00,
2013-11-08 07:10:00,41.4,33.0,30.03,North,0,0.0,0.0,72,0.00,,,0.00,WUHU216HW,2013-11-08 15:10:00,
2013-11-08 07:15:00,41.6,33.2,30.02,North,0,0.0,0.0,72,0.00,,,0.00,WUHU216HW,2013-11-08 15:15:00,
2013-11-08 07:20:00,41.9,33.9,30.03,North,0,0.0,0.0,73,0.00,,,0.00,WUHU216HW,2013-11-08 15:20:00,
2013-11-08 07:25:00,42.1,34.1,30.03,North,0,0.0,0.0,73,0.00,,,0.00,WUHU216HW,2013-11-08 15:25:00,
2013-11-08 07:30:00,42.7,34.9,30.03,North,0,0.0,0.0,74,0.00,,,0.00,WUHU216HW,2013-11-08 15:30:00,
2013-11-08 07:35:00,43.4,35.6,30.03,North,0,0.0,0.0,74,0.00,,,0.00,WUHU216HW,2013-11-08 15:35:00,
2013-11-08 07:40:00,44.3,36.8,30.03,North,0,0.0,0.0,75,0.00,,,0.00,WUHU216HW,2013-11-08 15:40:00,
2013-11-08 07:45:00,45.2,37.7,30.03,North,352,0.3,0.4,75,0.00,,,0.00,WUHU216HW,2013-11-08 15:45:00,
2013-11-08 07:50:00,46.3,38.8,30.03,NW,325,0.5,0.9,75,0.00,,,0.00,WUHU216HW,2013-11-08 15:50:00,
2013-11-08 07:55:00,47.2,39.2,30.04,WNW,294,0.6,1.1,74,0.00,,,0.00,WUHU216HW,2013-11-08 15:55:00,
2013-11-08 08:00:00,48.1,40.1,30.03,NNW,338,0.2,0.2,74,0.00,,,0.00,WUHU216HW,2013-11-08 16:00:00,
2013-11-08 08:05:00,48.8,40.4,30.03,NNW,338,0.2,0.2,73,0.00,,,0.00,WUHU216HW,2013-11-08 16:05:00,
2013-11-08 08:10:00,49.3,40.7,30.03,North,0,0.0,0.0,72,0.00,,,0.00,WUHU216HW,2013-11-08 16:10:00,
2013-11-08 08:15:00,50.0,41.1,30.04,North,0,0.0,0.0,71,0.00,,,0.00,WUHU216HW,2013-11-08 16:15:00,
2013-11-08 08:20:00,50.9,41.2,30.04,West,264,0.2,0.4,69,0.00,,,0.00,WUHU216HW,2013-11-08 16:20:00,
2013-11-08 08:25:00,52.4,42.1,30.04,WSW,239,0.3,0.7,68,0.00,,,0.00,WUHU216HW,2013-11-08 16:25:00,
2013-11-08 08:30:00,53.5,42.4,30.04,SW,225,0.9,1.1,66,0.00,,,0.00,WUHU216HW,2013-11-08 16:30:00,
2013-11-08 08:35:00,54.2,41.9,30.04,SW,227,0.6,1.1,63,0.00,,,0.00,WUHU216HW,2013-11-08 16:35:00,
2013-11-08 08:40:00,54.9,42.1,30.04,SW,219,0.8,1.6,62,0.00,,,0.00,WUHU216HW,2013-11-08 16:40:00,
2013-11-08 08:45:00,56.3,42.7,30.04,South,171,1.9,3.8,60,0.00,,,0.00,WUHU216HW,2013-11-08 16:45:00,
2013-11-08 08:50:00,57.4,41.9,30.04,South,187,1.4,2.9,56,0.00,,,0.00,WUHU216HW,2013-11-08 16:50:00,
2013-11-08 08:55:00,58.7,42.0,30.04,SSW,197,1.7,3.4,54,0.00,,,0.00,WUHU216HW,2013-11-08 16:55:00,
2013-11-08 09:00:00,59.6,42.0,30.04,South,189,1.6,3.4,52,0.00,,,0.00,WUHU216HW,2013-11-08 17:00:00,
2013-11-08 09:05:00,60.5,41.2,30.03,SSE,151,1.8,2.9,49,0.00,,,0.00,WUHU216HW,2013-11-08 17:05:00,
2013-11-08 09:10:00,61.2,40.7,30.03,SSE,153,2.2,3.4,47,0.00,,,0.00,WUHU216HW,2013-11-08 17:10:00,
2013-11-08 09:15:00,61.7,40.6,30.03,SSE,155,2.3,4.0,46,0.00,,,0.00,WUHU216HW,2013-11-08 17:15:00,
2013-11-08 09:20:00,62.3,40.5,30.03,South,172,2.9,4.7,45,0.00,,,0.00,WUHU216HW,2013-11-08 17:20:00,
2013-11-08 09:25:00,63.0,40.6,30.03,South,171,2.7,4.0,44,0.00,,,0.00,WUHU216HW,2013-11-08 17:25:00,
2013-11-08 09:30:00,63.4,40.3,30.03,South,170,2.4,3.8,43,0.00,,,0.00,WUHU216HW,2013-11-08 17:30:00,
2013-11-08 09:35:00,63.7,40.7,30.03,SE,146,2.3,3.4,43,0.00,,,0.00,WUHU216HW,2013-11-08 17:35:00,
2013-11-08 09:40:00,63.9,39.7,30.03,South,176,2.6,3.4,41,0.00,,,0.00,WUHU216HW,2013-11-08 17:40:00,
2013-11-08 09:45:00,64.4,40.8,30.03,SSW,201,2.3,3.4,42,0.00,,,0.00,WUHU216HW,2013-11-08 17:45:00,
2013-11-08 09:50:00,64.6,40.3,30.03,SSE,155,2.4,3.6,41,0.00,,,0.00,WUHU216HW,2013-11-08 17:50:00,
2013-11-08 09:55:00,65.0,41.2,30.03,SSE,156,2.2,3.4,42,0.00,,,0.00,WUHU216HW,2013-11-08 17:55:00,
2013-11-08 10:00:00,65.5,42.3,30.03,SSE,156,2.1,3.8,43,0.00,,,0.00,WUHU216HW,2013-11-08 18:00:00,
2013-11-08 10:05:00,65.9,42.1,30.04,South,179,2.0,2.7,42,0.00,,,0.00,WUHU216HW,2013-11-08 18:05:00,
2013-11-08 10:10:00,66.1,42.2,30.03,ESE,117,1.7,2.5,42,0.00,,,0.00,WUHU216HW,2013-11-08 18:10:00,
2013-11-08 10:15:00,66.6,42.1,30.03,South,169,2.3,3.6,41,0.00,,,0.00,WUHU216HW,2013-11-08 18:15:00,
2013-11-08 10:20:00,67.0,42.5,30.03,South,183,2.0,3.4,41,0.00,,,0.00,WUHU216HW,2013-11-08 18:20:00,
2013-11-08 10:25:00,67.1,42.7,30.03,SSW,195,1.8,2.7,41,0.00,,,0.00,WUHU216HW,2013-11-08 18:25:00,
2013-11-08 10:30:00,67.5,42.9,30.03,SW,226,1.4,2.5,41,0.00,,,0.00,WUHU216HW,2013-11-08 18:30:00,
2013-11-08 10:35:00,67.9,42.7,30.03,SSE,157,1.8,3.1,40,0.00,,,0.00,WUHU216HW,2013-11-08 18:35:00,
2013-11-08 10:40:00,68.0,43.5,30.02,South,180,1.6,2.2,41,0.00,,,0.00,WUHU216HW,2013-11-08 18:40:00,
2013-11-08 10:45:00,68.2,43.6,30.02,SSW,203,1.5,3.1,41,0.00,,,0.00,WUHU216HW,2013-11-08 18:45:00,
2013-11-08 10:50:00,68.4,43.7,30.02,SW,227,0.8,1.6,41,0.00,,,0.00,WUHU216HW,2013-11-08 18:50:00,
2013-11-08 10:55:00,68.8,44.1,30.02,SW,221,1.5,2.9,41,0.00,,,0.00,WUHU216HW,2013-11-08 18:55:00,
2013-11-08 11:00:00,68.9,44.3,30.02,SSE,155,1.4,2.9,41,0.00,,,0.00,WUHU216HW,2013-11-08 19:00:00,
2013-11-08 11:05:00,69.3,44.6,30.02,SSW,210,1.2,2.9,41,0.00,,,0.00,WUHU216HW,2013-11-08 19:05:00,
2013-11-08 11:10:00,69.8,45.1,30.02,SSW,201,1.4,3.1,41,0.00,,,0.00,WUHU216HW,2013-11-08 19:10:00,
2013-11-08 11:15:00,69.8,44.5,30.01,West,274,1.5,2.7,40,0.00,,,0.00,WUHU216HW,2013-11-08 19:15:00,
2013-11-08 11:20:00,69.8,44.5,30.01,West,276,1.8,3.4,40,0.00,,,0.00,WUHU216HW,2013-11-08 19:20:00,
2013-11-08 11:25:00,69.8,44.5,30.01,West,273,1.7,3.1,40,0.00,,,0.00,WUHU216HW,2013-11-08 19:25:00,
2013-11-08 11:30:00,69.8,43.8,30.01,South,189,1.9,3.4,39,0.00,,,0.00,WUHU216HW,2013-11-08 19:30:00,
2013-11-08 11:35:00,70.2,44.0,30.00,SSW,205,1.8,3.1,39,0.00,,,0.00,WUHU216HW,2013-11-08 19:35:00,
2013-11-08 11:40:00,70.6,43.7,30.00,West,263,1.5,2.5,38,0.00,,,0.00,WUHU216HW,2013-11-08 19:40:00,
2013-11-08 11:45:00,70.6,43.7,30.00,WNW,284,1.4,3.1,38,0.00,,,0.00,WUHU216HW,2013-11-08 19:45:00,
2013-11-08 11:50:00,70.6,43.7,30.00,WNW,284,1.3,2.9,38,0.00,,,0.00,WUHU216HW,2013-11-08 19:50:00,
2013-11-08 11:55:00,70.6,42.9,29.99,SW,232,1.8,3.4,37,0.00,,,0.00,WUHU216HW,2013-11-08 19:55:00,
2013-11-08 12:00:00,70.9,41.8,29.99,SW,230,1.1,2.0,35,0.00,,,0.00,WUHU216HW,2013-11-08 20:00:00,
2013-11-08 12:05:00,70.9,42.5,29.99,West,278,1.5,3.8,36,0.00,,,0.00,WUHU216HW,2013-11-08 20:05:00,
2013-11-08 12:10:00,70.9,43.2,29.99,SSW,200,2.2,3.1,37,0.00,,,0.00,WUHU216HW,2013-11-08 20:10:00,
2013-11-08 12:15:00,71.3,42.0,29.98,SSW,203,0.9,2.0,35,0.00,,,0.00,WUHU216HW,2013-11-08 20:15:00,
2013-11-08 12:20:00,71.6,41.7,29.98,West,281,2.3,4.0,34,0.00,,,0.00,WUHU216HW,2013-11-08 20:20:00,
2013-11-08 12:25:00,71.6,42.4,29.98,NW,307,2.1,4.5,35,0.00,,,0.00,WUHU216HW,2013-11-08 20:25:00,
2013-11-08 12:30:00,72.0,41.9,29.97,NW,320,1.9,3.6,34,0.00,,,0.00,WUHU216HW,2013-11-08 20:30:00,
2013-11-08 12:35:00,72.2,42.1,29.97,WNW,301,1.3,2.7,34,0.00,,,0.00,WUHU216HW,2013-11-08 20:35:00,
2013-11-08 12:40:00,72.4,42.3,29.97,WNW,289,2.5,4.0,34,0.00,,,0.00,WUHU216HW,2013-11-08 20:40:00,
2013-11-08 12:45:00,72.4,42.3,29.97,West,261,2.0,3.8,34,0.00,,,0.00,WUHU216HW,2013-11-08 20:45:00,
2013-11-08 12:50:00,72.5,42.4,29.97,WSW,249,2.0,3.4,34,0.00,,,0.00,WUHU216HW,2013-11-08 20:50:00,
2013-11-08 12:55:00,72.5,42.4,29.96,WSW,241,2.2,3.6,34,0.00,,,0.00,WUHU216HW,2013-11-08 20:55:00,
2013-11-08 13:00:00,72.7,41.9,29.96,West,277,1.8,4.0,33,0.00,,,0.00,WUHU216HW,2013-11-08 21:00:00,
2013-11-08 13:05:00,73.1,42.1,29.96,WNW,301,1.3,2.5,33,0.00,,,0.00,WUHU216HW,2013-11-08 21:05:00,
2013-11-08 13:10:00,73.1,42.1,29.96,NW,311,1.7,3.4,33,0.00,,,0.00,WUHU216HW,2013-11-08 21:10:00,
2013-11-08 13:15:00,73.1,39.9,29.96,NW,324,1.0,2.5,30,0.00,,,0.00,WUHU216HW,2013-11-08 21:15:00,
2013-11-08 13:20:00,73.1,41.4,29.96,WNW,303,2.3,3.8,32,0.00,,,0.00,WUHU216HW,2013-11-08 21:20:00,
2013-11-08 13:25:00,73.1,41.4,29.96,NW,305,1.7,2.7,32,0.00,,,0.00,WUHU216HW,2013-11-08 21:25:00,
2013-11-08 13:30:00,73.1,41.4,29.95,WNW,303,1.2,1.8,32,0.00,,,0.00,WUHU216HW,2013-11-08 21:30:00,
2013-11-08 13:35:00,73.4,40.9,29.95,WNW,282,2.5,4.7,31,0.00,,,0.00,WUHU216HW,2013-11-08 21:35:00,
2013-11-08 13:40:00,73.6,40.3,29.95,NW,308,1.4,3.4,30,0.00,,,0.00,WUHU216HW,2013-11-08 21:40:00,
2013-11-08 13:45:00,73.4,39.2,29.95,NW,318,1.3,2.5,29,0.00,,,0.00,WUHU216HW,2013-11-08 21:45:00,
2013-11-08 13:50:00,73.4,40.9,29.95,NW,322,1.2,2.9,31,0.00,,,0.00,WUHU216HW,2013-11-08 21:50:00,
2013-11-08 13:55:00,73.6,41.0,29.95,NW,313,1.9,3.6,31,0.00,,,0.00,WUHU216HW,2013-11-08 21:55:00,
2013-11-08 14:00:00,73.8,41.9,29.95,NW,316,1.3,2.2,32,0.00,,,0.00,WUHU216HW,2013-11-08 22:00:00,
2013-11-08 14:05:00,74.0,40.6,29.95,WNW,303,2.6,4.0,30,0.00,,,0.00,WUHU216HW,2013-11-08 22:05:00,
2013-11-08 14:10:00,73.8,41.2,29.94,NNW,336,1.3,2.2,31,0.00,,,0.00,WUHU216HW,2013-11-08 22:10:00,
2013-11-08 14:15:00,73.8,40.5,29.95,WNW,299,2.1,3.8,30,0.00,,,0.00,WUHU216HW,2013-11-08 22:15:00,
2013-11-08 14:20:00,73.8,41.2,29.94,NW,315,1.9,3.4,31,0.00,,,0.00,WUHU216HW,2013-11-08 22:20:00,
2013-11-08 14:25:00,73.6,41.0,29.94,WNW,288,1.3,2.5,31,0.00,,,0.00,WUHU216HW,2013-11-08 22:25:00,
2013-11-08 14:30:00,73.6,41.0,29.94,WNW,287,1.4,3.4,31,0.00,,,0.00,WUHU216HW,2013-11-08 22:30:00,
2013-11-08 14:35:00,74.0,41.4,29.94,WNW,297,2.1,3.4,31,0.00,,,0.00,WUHU216HW,2013-11-08 22:35:00,
2013-11-08 14:40:00,74.2,41.6,29.94,WNW,291,1.7,2.9,31,0.00,,,0.00,WUHU216HW,2013-11-08 22:40:00,
2013-11-08 14:46:00,74.2,40.8,29.94,NW,309,1.4,2.7,30,0.00,,,0.00,WUHU216HW,2013-11-08 22:46:00,
2013-11-08 14:51:00,74.3,41.0,29.94,NW,304,2.0,3.6,30,0.00,,,0.00,WUHU216HW,2013-11-08 22:51:00,
2013-11-08 14:56:00,74.0,40.6,29.94,NW,307,2.6,3.8,30,0.00,,,0.00,WUHU216HW,2013-11-08 22:56:00,
2013-11-08 15:01:00,74.0,39.6,29.93,WNW,293,1.8,4.0,29,0.00,,,0.00,WUHU216HW,2013-11-08 23:01:00,
2013-11-08 15:06:00,74.3,40.0,29.93,West,279,2.0,4.0,29,0.00,,,0.00,WUHU216HW,2013-11-08 23:06:00,
2013-11-08 15:11:00,74.3,40.0,29.93,WNW,289,2.2,3.1,29,0.00,,,0.00,WUHU216HW,2013-11-08 23:11:00,
2013-11-08 15:16:00,74.3,40.0,29.93,WNW,293,2.0,3.1,29,0.00,,,0.00,WUHU216HW,2013-11-08 23:16:00,
2013-11-08 15:21:00,74.2,39.8,29.93,WNW,301,1.9,2.9,29,0.00,,,0.00,WUHU216HW,2013-11-08 23:21:00,
2013-11-08 15:26:00,73.8,39.4,29.93,NW,304,1.8,3.4,29,0.00,,,0.00,WUHU216HW,2013-11-08 23:26:00,
2013-11-08 15:31:00,73.8,40.5,29.93,West,272,1.7,2.7,30,0.00,,,0.00,WUHU216HW,2013-11-08 23:31:00,
2013-11-08 15:36:00,73.6,40.3,29.93,NW,308,1.9,2.7,30,0.00,,,0.00,WUHU216HW,2013-11-08 23:36:00,
2013-11-08 15:41:00,73.4,40.1,29.93,NW,312,1.7,2.7,30,0.00,,,0.00,WUHU216HW,2013-11-08 23:41:00,
2013-11-08 15:46:00,73.3,40.0,29.92,WNW,294,1.5,2.5,30,0.00,,,0.00,WUHU216HW,2013-11-08 23:46:00,
2013-11-08 15:51:00,73.3,40.0,29.92,NW,305,1.6,2.7,30,0.00,,,0.00,WUHU216HW,2013-11-08 23:51:00,
2013-11-08 15:56:00,72.9,39.7,29.92,NW,314,2.0,2.7,30,0.00,,,0.00,WUHU216HW,2013-11-08 23:56:00,
2013-11-08 16:01:00,72.9,40.5,29.92,WNW,298,1.3,1.8,31,0.00,,,0.00,WUHU216HW,2013-11-09 00:01:00,
2013-11-08 16:06:00,72.5,40.1,29.92,NW,310,1.2,2.5,31,0.00,,,0.00,WUHU216HW,2013-11-09 00:06:00,
2013-11-08 16:11:00,72.4,40.8,29.92,NW,318,0.7,1.6,32,0.00,,,0.00,WUHU216HW,2013-11-09 00:11:00,
2013-11-08 16:16:00,72.0,41.2,29.92,NNW,335,0.4,0.9,33,0.00,,,0.00,WUHU216HW,2013-11-09 00:16:00,
2013-11-08 16:21:00,71.6,41.7,29.92,NNW,338,0.4,0.9,34,0.00,,,0.00,WUHU216HW,2013-11-09 00:21:00,
2013-11-08 16:26:00,71.3,41.3,29.92,NNW,339,0.4,0.7,34,0.00,,,0.00,WUHU216HW,2013-11-09 00:26:00,
2013-11-08 16:31:00,71.1,42.0,29.92,NNW,341,0.3,0.7,35,0.00,,,0.00,WUHU216HW,2013-11-09 00:31:00,
2013-11-08 16:36:00,70.6,41.4,29.92,NNW,341,0.4,1.1,35,0.00,,,0.00,WUHU216HW,2013-11-09 00:36:00,
2013-11-08 16:41:00,70.2,42.6,29.91,North,351,0.3,0.4,37,0.00,,,0.00,WUHU216HW,2013-11-09 00:41:00,
2013-11-08 16:46:00,69.5,42.0,29.92,North,0,0.3,0.7,37,0.00,,,0.00,WUHU216HW,2013-11-09 00:46:00,
2013-11-08 16:51:00,68.8,42.0,29.92,NNW,344,0.3,0.4,38,0.00,,,0.00,WUHU216HW,2013-11-09 00:51:00,
2013-11-08 16:56:00,68.2,42.3,29.92,North,0,0.0,0.0,39,0.00,,,0.00,WUHU216HW,2013-11-09 00:56:00,
2013-11-08 17:01:00,67.5,41.6,29.92,North,0,0.0,0.0,39,0.00,,,0.00,WUHU216HW,2013-11-09 01:01:00,
2013-11-08 17:06:00,67.0,41.1,29.92,North,0,0.0,0.0,39,0.00,,,0.00,WUHU216HW,2013-11-09 01:06:00,
2013-11-08 17:11:00,66.6,42.1,29.92,North,0,0.0,0.0,41,0.00,,,0.00,WUHU216HW,2013-11-09 01:11:00,
2013-11-08 17:16:00,65.9,41.5,29.92,North,0,0.0,0.0,41,0.00,,,0.00,WUHU216HW,2013-11-09 01:16:00,
2013-11-08 17:21:00,65.5,41.1,29.92,North,0,0.0,0.0,41,0.00,,,0.00,WUHU216HW,2013-11-09 01:21:00,
2013-11-08 17:26:00,65.0,41.2,29.92,North,0,0.0,0.0,42,0.00,,,0.00,WUHU216HW,2013-11-09 01:26:00,
2013-11-08 17:31:00,64.3,41.1,29.92,North,0,0.0,0.0,43,0.00,,,0.00,WUHU216HW,2013-11-09 01:31:00,
2013-11-08 17:36:00,63.4,41.0,29.92,North,0,0.0,0.0,44,0.00,,,0.00,WUHU216HW,2013-11-09 01:36:00,
2013-11-08 17:41:00,62.6,40.3,29.92,North,0,0.0,0.0,44,0.00,,,0.00,WUHU216HW,2013-11-09 01:41:00,
2013-11-08 17:46:00,62.3,40.5,29.92,North,0,0.0,0.0,45,0.00,,,0.00,WUHU216HW,2013-11-09 01:46:00,
2013-11-08 17:51:00,61.9,40.8,29.93,North,0,0.0,0.0,46,0.00,,,0.00,WUHU216HW,2013-11-09 01:51:00,
2013-11-08 17:56:00,61.6,40.5,29.93,North,0,0.0,0.0,46,0.00,,,0.00,WUHU216HW,2013-11-09 01:56:00,
2013-11-08 18:01:00,61.0,40.6,29.93,North,0,0.0,0.0,47,0.00,,,0.00,WUHU216HW,2013-11-09 02:01:00,
2013-11-08 18:06:00,60.5,40.7,29.93,North,0,0.0,0.0,48,0.00,,,0.00,WUHU216HW,2013-11-09 02:06:00,
2013-11-08 18:11:00,60.1,40.9,29.93,North,0,0.0,0.0,49,0.00,,,0.00,WUHU216HW,2013-11-09 02:11:00,
2013-11-08 18:16:00,59.6,40.4,29.93,North,0,0.0,0.0,49,0.00,,,0.00,WUHU216HW,2013-11-09 02:16:00,
2013-11-08 18:21:00,59.0,40.5,29.93,North,0,0.0,0.0,50,0.00,,,0.00,WUHU216HW,2013-11-09 02:21:00,
2013-11-08 18:26:00,58.9,40.3,29.93,North,0,0.0,0.0,50,0.00,,,0.00,WUHU216HW,2013-11-09 02:26:00,
2013-11-08 18:31:00,58.3,40.3,29.94,North,0,0.0,0.0,51,0.00,,,0.00,WUHU216HW,2013-11-09 02:31:00,
2013-11-08 18:36:00,58.0,40.0,29.94,North,0,0.0,0.0,51,0.00,,,0.00,WUHU216HW,2013-11-09 02:36:00,
2013-11-08 18:41:00,57.4,39.5,29.94,North,0,0.0,0.0,51,0.00,,,0.00,WUHU216HW,2013-11-09 02:41:00,
2013-11-08 18:46:00,56.9,39.4,29.94,North,0,0.0,0.0,52,0.00,,,0.00,WUHU216HW,2013-11-09 02:46:00,
2013-11-08 18:51:00,56.5,39.1,29.94,North,0,0.0,0.0,52,0.00,,,0.00,WUHU216HW,2013-11-09 02:51:00,
2013-11-08 18:56:00,56.2,39.3,29.94,North,0,0.0,0.0,53,0.00,,,0.00,WUHU216HW,2013-11-09 02:56:00,
2013-11-08 19:01:00,55.4,38.5,29.94,SSE,156,0.5,1.1,53,0.00,,,0.00,WUHU216HW,2013-11-09 03:01:00,
2013-11-08 19:06:00,55.1,38.2,29.94,SE,135,0.2,0.2,53,0.00,,,0.00,WUHU216HW,2013-11-09 03:06:00,
2013-11-08 19:11:00,54.9,38.4,29.94,North,0,0.0,0.0,54,0.00,,,0.00,WUHU216HW,2013-11-09 03:11:00,
2013-11-08 19:16:00,54.5,38.2,29.94,North,0,0.0,0.0,54,0.00,,,0.00,WUHU216HW,2013-11-09 03:16:00,
2013-11-08 19:21:00,54.4,38.4,29.94,North,0,0.0,0.0,55,0.00,,,0.00,WUHU216HW,2013-11-09 03:21:00,
2013-11-08 19:26:00,54.4,38.4,29.94,North,0,0.0,0.0,55,0.00,,,0.00,WUHU216HW,2013-11-09 03:26:00,
2013-11-08 19:31:00,54.2,38.3,29.95,North,0,0.0,0.0,55,0.00,,,0.00,WUHU216HW,2013-11-09 03:31:00,
2013-11-08 19:36:00,54.0,38.6,29.94,North,0,0.0,0.0,56,0.00,,,0.00,WUHU216HW,2013-11-09 03:36:00,
2013-11-08 19:41:00,54.0,38.6,29.94,North,0,0.0,0.0,56,0.00,,,0.00,WUHU216HW,2013-11-09 03:41:00,
2013-11-08 19:46:00,53.6,38.3,29.94,North,0,0.0,0.0,56,0.00,,,0.00,WUHU216HW,2013-11-09 03:46:00,
2013-11-08 19:51:00,53.1,38.3,29.94,North,0,0.0,0.0,57,0.00,,,0.00,WUHU216HW,2013-11-09 03:51:00,
2013-11-08 19:56:00,52.6,37.7,29.94,North,0,0.0,0.0,57,0.00,,,0.00,WUHU216HW,2013-11-09 03:56:00,
2013-11-08 20:01:00,52.4,38.0,29.95,North,0,0.0,0.0,58,0.00,,,0.00,WUHU216HW,2013-11-09 04:01:00,
2013-11-08 20:06:00,52.2,37.8,29.95,North,0,0.0,0.0,58,0.00,,,0.00,WUHU216HW,2013-11-09 04:06:00,
2013-11-08 20:11:00,51.8,37.9,29.95,North,0,0.0,0.0,59,0.00,,,0.00,WUHU216HW,2013-11-09 04:11:00,
2013-11-08 20:16:00,51.5,37.5,29.95,North,0,0.0,0.0,59,0.00,,,0.00,WUHU216HW,2013-11-09 04:16:00,
2013-11-08 20:21:00,51.5,38.0,29.95,North,0,0.0,0.0,60,0.00,,,0.00,WUHU216HW,2013-11-09 04:21:00,
2013-11-08 20:26:00,51.3,37.9,29.95,North,0,0.0,0.0,60,0.00,,,0.00,WUHU216HW,2013-11-09 04:26:00,
2013-11-08 20:31:00,51.1,37.7,29.95,North,0,0.0,0.0,60,0.00,,,0.00,WUHU216HW,2013-11-09 04:31:00,
2013-11-08 20:36:00,50.8,37.8,29.95,North,0,0.0,0.0,61,0.00,,,0.00,WUHU216HW,2013-11-09 04:36:00,
2013-11-08 20:41:00,50.8,38.2,29.95,North,0,0.0,0.0,62,0.00,,,0.00,WUHU216HW,2013-11-09 04:41:00,
2013-11-08 20:46:00,50.8,39.0,29.95,North,0,0.0,0.0,64,0.00,,,0.00,WUHU216HW,2013-11-09 04:46:00,
2013-11-08 20:51:00,50.8,38.6,29.95,North,0,0.0,0.0,63,0.00,,,0.00,WUHU216HW,2013-11-09 04:51:00,
2013-11-08 20:56:00,50.8,39.0,29.96,North,0,0.0,0.0,64,0.00,,,0.00,WUHU216HW,2013-11-09 04:56:00,
2013-11-08 21:01:00,50.6,38.8,29.96,North,0,0.0,0.0,64,0.00,,,0.00,WUHU216HW,2013-11-09 05:01:00,
2013-11-08 21:06:00,50.6,39.3,29.96,North,0,0.0,0.0,65,0.00,,,0.00,WUHU216HW,2013-11-09 05:06:00,
2013-11-08 21:11:00,50.6,39.3,29.96,North,0,0.0,0.0,65,0.00,,,0.00,WUHU216HW,2013-11-09 05:11:00,
2013-11-08 21:16:00,50.2,38.4,29.96,North,0,0.0,0.0,64,0.00,,,0.00,WUHU216HW,2013-11-09 05:16:00,
2013-11-08 21:21:00,50.0,38.4,29.96,North,0,0.0,0.0,64,0.00,,,0.00,WUHU216HW,2013-11-09 05:21:00,
2013-11-08 21:26:00,49.7,38.0,29.96,North,0,0.0,0.0,64,0.00,,,0.00,WUHU216HW,2013-11-09 05:26:00,
2013-11-08 21:31:00,49.3,37.6,29.96,North,0,0.0,0.0,64,0.00,,,0.00,WUHU216HW,2013-11-09 05:31:00,
2013-11-08 21:36:00,49.3,37.6,29.97,North,0,0.0,0.0,64,0.00,,,0.00,WUHU216HW,2013-11-09 05:36:00,
2013-11-08 21:41:00,49.0,37.3,29.97,North,0,0.0,0.0,64,0.00,,,0.00,WUHU216HW,2013-11-09 05:41:00,
2013-11-08 21:46:00,48.6,36.5,29.97,North,0,0.0,0.0,63,0.00,,,0.00,WUHU216HW,2013-11-09 05:46:00,
2013-11-08 21:51:00,48.6,36.5,29.97,North,0,0.0,0.0,63,0.00,,,0.00,WUHU216HW,2013-11-09 05:51:00,
2013-11-08 21:56:00,48.2,36.6,29.97,North,0,0.0,0.0,64,0.00,,,0.00,WUHU216HW,2013-11-09 05:56:00,
2013-11-08 22:01:00,48.2,36.6,29.97,North,0,0.0,0.0,64,0.00,,,0.00,WUHU216HW,2013-11-09 06:01:00,
2013-11-08 22:06:00,48.2,37.0,29.97,North,0,0.0,0.0,65,0.00,,,0.00,WUHU216HW,2013-11-09 06:06:00,
2013-11-08 22:11:00,48.1,36.8,29.97,North,0,0.0,0.0,65,0.00,,,0.00,WUHU216HW,2013-11-09 06:11:00,
2013-11-08 22:16:00,47.9,37.0,29.97,ENE,71,0.6,0.7,66,0.00,,,0.00,WUHU216HW,2013-11-09 06:16:00,
2013-11-08 22:21:00,47.7,36.9,29.97,North,0,0.0,0.0,66,0.00,,,0.00,WUHU216HW,2013-11-09 06:21:00,
2013-11-08 22:26:00,47.5,36.7,29.97,North,0,0.0,0.0,66,0.00,,,0.00,WUHU216HW,2013-11-09 06:26:00,
2013-11-08 22:31:00,47.3,36.6,29.97,North,0,0.0,0.0,66,0.00,,,0.00,WUHU216HW,2013-11-09 06:31:00,
2013-11-08 22:36:00,47.2,36.4,29.97,North,0,0.0,0.0,66,0.00,,,0.00,WUHU216HW,2013-11-09 06:36:00,
2013-11-08 22:41:00,47.2,36.4,29.97,North,0,0.0,0.0,66,0.00,,,0.00,WUHU216HW,2013-11-09 06:41:00,
2013-11-08 22:47:00,47.2,36.4,29.97,North,0,0.0,0.0,66,0.00,,,0.00,WUHU216HW,2013-11-09 06:47:00,
2013-11-08 22:52:00,47.2,36.7,29.97,North,0,0.0,0.0,67,0.00,,,0.00,WUHU216HW,2013-11-09 06:52:00,
2013-11-08 22:57:00,47.0,37.0,29.97,North,0,0.0,0.0,68,0.00,,,0.00,WUHU216HW,2013-11-09 06:57:00,
2013-11-08 23:02:00,46.8,36.5,29.97,North,0,0.0,0.0,67,0.00,,,0.00,WUHU216HW,2013-11-09 07:02:00,
2013-11-08 23:07:00,46.8,36.8,29.97,North,0,0.0,0.0,68,0.00,,,0.00,WUHU216HW,2013-11-09 07:07:00,
2013-11-08 23:12:00,46.8,37.2,29.97,North,0,0.0,0.0,69,0.00,,,0.00,WUHU216HW,2013-11-09 07:12:00,
2013-11-08 23:17:00,46.8,37.2,29.97,North,0,0.0,0.0,69,0.00,,,0.00,WUHU216HW,2013-11-09 07:17:00,
2013-11-08 23:22:00,46.6,37.5,29.96,North,0,0.0,0.0,70,0.00,,,0.00,WUHU216HW,2013-11-09 07:22:00,
2013-11-08 23:27:00,46.4,36.9,29.96,North,0,0.0,0.0,69,0.00,,,0.00,WUHU216HW,2013-11-09 07:27:00,
2013-11-08 23:32:00,46.4,37.3,29.96,North,0,0.4,0.4,70,0.00,,,0.00,WUHU216HW,2013-11-09 07:32:00,
2013-11-08 23:37:00,46.3,37.5,29.96,North,0,0.0,0.0,71,0.00,,,0.00,WUHU216HW,2013-11-09 07:37:00,
2013-11-08 23:42:00,45.9,37.5,29.96,North,0,0.0,0.0,72,0.00,,,0.00,WUHU216HW,2013-11-09 07:42:00,
2013-11-08 23:47:00,45.9,37.5,29.96,North,0,0.0,0.0,72,0.00,,,0.00,WUHU216HW,2013-11-09 07:47:00,
2013-11-08 23:52:00,45.9,37.1,29.96,North,0,0.0,0.0,71,0.00,,,0.00,WUHU216HW,2013-11-09 07:52:00,
2013-11-08 23:57:00,45.9,36.7,29.96,North,0,0.0,0.0,70,0.00,,,0.00,WUHU216HW,2013-11-09 07:57:00,